San Antonio, Texas
Traffic Map
Current Weather Conditions
San Antonio, Texas
Broken Clouds
Broken Clouds
30°
Feels Like: 32°
Wind Chill: 30° Ceiling: 17000
Heat Index: 32° Visibility: 10mi
Dew Point: 20° Wind: 12mph
Humidity: 55% Direction: 360° (N)
Pressure: 29.88in Gusts: 0mph
Raw Report DataKSAT 240051Z 36010KT 10SM FEW075 BKN170 BKN210 30/20 A2988 RMK AO2 SLP101 T03000200
Traffic Incident Summary
Active as of:
Severity:
Category:
InformationThere was an issue retrieving the traffic information for this location. Please try a different location or try again shortly.
Advertisements